Puerto Nuevo, Puerto Rico
Current Conditions -  °F | °C
As of 6:56 AM on Saturday 22 Nov 2014 (Local Time) from TJSJ Reporting Station
Broken Clouds Broken Clouds  
Wind Chill: 77°   Ceiling: 7000
Heat Index: 78°   Visibility: 10mi
Dew Point: 75°   Wind: 3mph
Humidity: 94%   Direction: 100°E
Pressure: 30"   Gusts: NA
Location:  18.3905°N, 66.0903°W
Report Text: TJSJ 221056Z 10003KT 10SM SCT018 SCT040 BKN070 25/24 A3000 RMK AO2 RAB0958E11B38E50 SLP158 P0002 T02500239
Loading
Personal Weather Stations






























Interactive Weather Map New forecast layout! Learn more

10-Day Weather Forecast

Advertisements
Track Severe Weather on mobile